createdAt,value
2023-02-27T00:00:52.662Z,72.80
2023-02-27T00:01:52.638Z,73.19
2023-02-27T00:02:52.661Z,72.80
2023-02-27T00:03:52.680Z,72.69
2023-02-27T00:04:52.624Z,71.75
2023-02-27T00:05:52.621Z,72.49
2023-02-27T00:06:52.600Z,72.91
2023-02-27T00:07:52.584Z,73.01
2023-02-27T00:08:52.685Z,74.37
2023-02-27T00:09:52.594Z,74.09
2023-02-27T00:10:52.588Z,74.51
2023-02-27T00:11:52.563Z,75.14
2023-02-27T00:12:52.563Z,75.25
2023-02-27T00:13:52.560Z,74.62
2023-02-27T00:14:52.555Z,74.41
2023-02-27T00:15:52.564Z,74.02
2023-02-27T00:16:52.566Z,74.20
2023-02-27T00:17:52.524Z,73.88
2023-02-27T00:18:52.519Z,74.41
2023-02-27T00:19:52.532Z,72.94
2023-02-27T00:20:52.519Z,73.25
2023-02-27T00:21:52.502Z,73.81
2023-02-27T00:22:52.510Z,73.68
2023-02-27T00:23:52.510Z,72.94
2023-02-27T00:24:52.494Z,73.04
2023-02-27T00:25:52.487Z,72.73
2023-02-27T00:26:52.477Z,72.73
2023-02-27T00:27:52.476Z,73.36
2023-02-27T00:28:52.467Z,73.22
2023-02-27T00:29:52.469Z,73.68
2023-02-27T00:30:52.491Z,73.36
2023-02-27T00:31:52.499Z,73.68
2023-02-27T00:32:52.450Z,72.41
2023-02-27T00:33:52.436Z,72.52
2023-02-27T00:34:52.451Z,72.52
2023-02-27T00:35:52.408Z,72.31
2023-02-27T00:36:52.421Z,72.31
2023-02-27T00:37:52.398Z,73.25
2023-02-27T00:38:52.414Z,73.25
2023-02-27T00:39:52.408Z,73.15
2023-02-27T00:40:52.390Z,72.73
2023-02-27T00:41:52.377Z,73.46
2023-02-27T00:42:52.384Z,73.68
2023-02-27T00:43:52.356Z,73.88
2023-02-27T00:44:52.391Z,73.36
2023-02-27T00:45:52.406Z,72.73
2023-02-27T00:46:52.404Z,73.04
2023-02-27T00:47:52.344Z,72.91
2023-02-27T00:48:52.324Z,72.63
2023-02-27T00:49:52.325Z,73.04
2023-02-27T00:50:52.310Z,73.46
2023-02-27T00:51:52.326Z,73.68
2023-02-27T00:52:52.303Z,73.36
2023-02-27T00:53:52.307Z,72.83
2023-02-27T00:54:52.299Z,72.63
2023-02-27T00:55:52.320Z,71.99
2023-02-27T00:56:52.273Z,71.68
2023-02-27T00:57:52.302Z,72.38
2023-02-27T00:58:52.267Z,72.20
2023-02-27T00:59:52.285Z,72.52
2023-02-27T01:00:52.319Z,73.99
2023-02-27T01:01:52.259Z,73.25
2023-02-27T01:02:52.329Z,73.36
2023-02-27T01:03:52.230Z,73.57
2023-02-27T01:04:52.234Z,73.78
2023-02-27T01:05:52.220Z,73.99
2023-02-27T01:06:52.242Z,74.33
2023-02-27T01:07:52.239Z,74.33
2023-02-27T01:08:52.207Z,74.33
2023-02-27T01:09:52.229Z,74.86
2023-02-27T01:10:52.191Z,74.97
2023-02-27T01:11:52.223Z,74.79
2023-02-27T01:12:52.180Z,75.81
2023-02-27T01:13:52.181Z,75.00
2023-02-27T01:14:52.197Z,75.21
2023-02-27T01:15:52.194Z,75.32
2023-02-27T01:16:52.160Z,75.70
2023-02-27T01:17:52.163Z,75.18
2023-02-27T01:18:52.146Z,75.38
2023-02-27T01:19:52.182Z,75.07
2023-02-27T01:20:52.145Z,74.90
2023-02-27T01:21:52.130Z,74.23
2023-02-27T01:22:52.126Z,74.33
2023-02-27T01:23:52.123Z,74.13
2023-02-27T01:24:52.139Z,74.23
2023-02-27T01:25:52.108Z,73.60
2023-02-27T01:26:52.135Z,73.71
2023-02-27T01:27:52.100Z,73.92
2023-02-27T01:28:52.088Z,73.60
2023-02-27T01:29:52.084Z,74.02
2023-02-27T01:30:52.108Z,74.02
2023-02-27T01:31:52.146Z,73.71
2023-02-27T01:32:52.061Z,72.97
2023-02-27T01:33:52.055Z,73.28
2023-02-27T01:34:52.045Z,73.18
2023-02-27T01:35:52.040Z,73.25
2023-02-27T01:36:52.052Z,73.71
2023-02-27T01:37:52.028Z,74.23
2023-02-27T01:38:52.016Z,74.44
2023-02-27T01:39:52.039Z,73.88
2023-02-27T01:40:52.010Z,74.83
2023-02-27T01:41:51.997Z,74.02
2023-02-27T01:42:51.990Z,74.23
2023-02-27T01:43:51.982Z,72.41
2023-02-27T01:44:52.003Z,72.73
2023-02-27T01:45:52.013Z,72.31
2023-02-27T01:46:52.000Z,72.73
2023-02-27T01:47:51.963Z,73.78
2023-02-27T01:48:51.969Z,73.68
2023-02-27T01:49:51.975Z,73.78
2023-02-27T01:50:51.953Z,73.50
2023-02-27T01:51:51.934Z,73.18
2023-02-27T01:52:51.933Z,73.92
2023-02-27T01:53:51.917Z,73.60
2023-02-27T01:54:51.930Z,73.57
2023-02-27T01:55:51.924Z,73.08
2023-02-27T01:56:51.916Z,73.81
2023-02-27T01:57:51.943Z,74.23
2023-02-27T01:58:51.890Z,74.33
2023-02-27T01:59:51.888Z,74.55
2023-02-27T02:00:51.913Z,74.23
2023-02-27T02:01:51.878Z,75.07
2023-02-27T02:02:51.876Z,74.97
2023-02-27T02:03:51.858Z,75.81
2023-02-27T02:04:51.854Z,75.42
2023-02-27T02:05:51.855Z,75.49
2023-02-27T02:06:51.849Z,75.74
2023-02-27T02:07:51.836Z,76.89
2023-02-27T02:08:51.856Z,77.10
2023-02-27T02:09:51.822Z,77.00
2023-02-27T02:10:51.815Z,77.76
2023-02-27T02:11:51.811Z,77.66
2023-02-27T02:12:51.818Z,78.50
2023-02-27T02:13:51.798Z,78.82
2023-02-27T02:14:51.812Z,78.64
2023-02-27T02:15:51.781Z,79.35
2023-02-27T02:16:51.806Z,79.38
2023-02-27T02:17:51.809Z,80.01
2023-02-27T02:18:51.790Z,79.59
2023-02-27T02:19:51.768Z,79.83
2023-02-27T02:20:51.755Z,80.26
2023-02-27T02:21:51.752Z,79.94
2023-02-27T02:22:51.736Z,79.94
2023-02-27T02:23:51.732Z,79.94
2023-02-27T02:24:51.728Z,80.57
2023-02-27T02:25:51.751Z,79.91
2023-02-27T02:26:51.709Z,80.26
2023-02-27T02:27:51.739Z,79.73
2023-02-27T02:28:51.703Z,80.15
2023-02-27T02:29:51.700Z,79.73
2023-02-27T02:30:51.766Z,80.68
2023-02-27T02:31:51.910Z,81.03
2023-02-27T02:32:51.678Z,81.41
2023-02-27T02:33:51.662Z,80.99
2023-02-27T02:34:51.657Z,81.77
2023-02-27T02:35:51.669Z,81.66
2023-02-27T02:36:51.652Z,81.98
2023-02-27T02:37:51.660Z,81.77
2023-02-27T02:38:51.627Z,81.87
2023-02-27T02:39:51.617Z,82.40
2023-02-27T02:40:51.647Z,82.29
2023-02-27T02:41:51.613Z,82.40
2023-02-27T02:42:53.277Z,83.17
2023-02-27T02:43:51.612Z,82.75
2023-02-27T02:44:51.612Z,83.28
2023-02-27T02:45:51.608Z,82.92
2023-02-27T02:46:51.624Z,83.39
2023-02-27T02:47:51.570Z,83.28
2023-02-27T02:48:51.579Z,83.07
2023-02-27T02:49:51.553Z,82.86
2023-02-27T02:50:51.573Z,83.17
2023-02-27T02:51:51.543Z,82.75
2023-02-27T02:52:51.581Z,83.31
2023-02-27T02:53:51.532Z,83.17
2023-02-27T02:54:51.515Z,83.17
2023-02-27T02:55:51.511Z,83.17
2023-02-27T02:56:51.532Z,83.17
2023-02-27T02:57:51.491Z,82.97
2023-02-27T02:58:51.497Z,83.59
2023-02-27T02:59:51.488Z,82.75
2023-02-27T03:00:51.483Z,83.28
2023-02-27T03:01:51.532Z,84.23
2023-02-27T03:02:51.494Z,83.81
2023-02-27T03:03:51.456Z,83.95
2023-02-27T03:04:51.454Z,83.07
2023-02-27T03:05:51.447Z,83.70
2023-02-27T03:06:51.466Z,83.81
2023-02-27T03:07:51.463Z,83.39
2023-02-27T03:08:51.435Z,83.70
2023-02-27T03:09:51.433Z,84.01
2023-02-27T03:10:51.430Z,83.59
2023-02-27T03:11:51.409Z,83.17
2023-02-27T03:12:51.419Z,83.81
2023-02-27T03:13:51.409Z,83.28
2023-02-27T03:14:51.393Z,82.97
2023-02-27T03:15:51.413Z,83.07
2023-02-27T03:16:51.382Z,82.97
2023-02-27T03:17:51.386Z,82.65
2023-02-27T03:18:51.364Z,82.65
2023-02-27T03:19:51.351Z,82.43
2023-02-27T03:20:51.349Z,82.33
2023-02-27T03:21:51.369Z,82.92
2023-02-27T03:22:51.329Z,83.28
2023-02-27T03:23:51.320Z,82.75
2023-02-27T03:24:51.330Z,82.65
2023-02-27T03:25:51.310Z,82.97
2023-02-27T03:26:51.303Z,83.70
2023-02-27T03:27:51.319Z,82.97
2023-02-27T03:28:51.289Z,82.97
2023-02-27T03:29:51.310Z,83.70
2023-02-27T03:30:51.366Z,83.59
2023-02-27T03:31:51.382Z,83.00
2023-02-27T03:32:51.285Z,83.95
2023-02-27T03:33:51.246Z,83.70
2023-02-27T03:34:51.248Z,84.54
2023-02-27T03:35:51.231Z,84.96
2023-02-27T03:36:51.219Z,85.28
2023-02-27T03:37:51.216Z,85.38
2023-02-27T03:38:51.234Z,85.87
2023-02-27T03:39:51.204Z,85.77
2023-02-27T03:40:51.197Z,85.45
2023-02-27T03:41:51.198Z,85.03
2023-02-27T03:42:51.204Z,85.03
2023-02-27T03:43:51.179Z,84.67
2023-02-27T03:44:52.475Z,84.71
2023-02-27T03:45:51.162Z,84.71
2023-02-27T03:46:51.153Z,84.82
2023-02-27T03:47:51.141Z,84.67
2023-02-27T03:48:51.190Z,84.50
2023-02-27T03:49:51.164Z,84.57
2023-02-27T03:50:51.150Z,84.82
2023-02-27T03:51:51.119Z,84.67
2023-02-27T03:52:51.140Z,84.67
2023-02-27T03:53:51.123Z,84.15
2023-02-27T03:54:51.104Z,84.15
2023-02-27T03:55:51.125Z,84.05
2023-02-27T03:56:51.104Z,84.47
2023-02-27T03:57:51.115Z,84.57
2023-02-27T03:58:51.069Z,84.25
2023-02-27T03:59:51.070Z,84.05
2023-02-27T04:00:51.062Z,83.83
2023-02-27T04:01:51.101Z,84.05
2023-02-27T04:02:51.076Z,83.94
2023-02-27T04:03:51.035Z,83.94
2023-02-27T04:04:51.035Z,83.83
2023-02-27T04:05:51.051Z,83.73
2023-02-27T04:06:51.021Z,84.47
2023-02-27T04:07:51.006Z,83.83
2023-02-27T04:08:51.000Z,84.15
2023-02-27T04:09:50.994Z,84.25
2023-02-27T04:10:50.991Z,84.36
2023-02-27T04:11:50.992Z,84.15
2023-02-27T04:12:50.981Z,84.47
2023-02-27T04:13:50.967Z,84.47
2023-02-27T04:14:50.984Z,84.36
2023-02-27T04:15:50.995Z,84.57
2023-02-27T04:16:50.948Z,84.57
2023-02-27T04:17:50.946Z,84.05
2023-02-27T04:18:50.944Z,84.15
2023-02-27T04:19:50.929Z,83.83
2023-02-27T04:20:50.969Z,84.15
2023-02-27T04:21:50.930Z,84.15
2023-02-27T04:22:50.916Z,84.15
2023-02-27T04:23:50.917Z,84.05
2023-02-27T04:24:50.903Z,84.57
2023-02-27T04:25:50.906Z,84.15
2023-02-27T04:26:50.921Z,84.36
2023-02-27T04:27:50.900Z,84.15
2023-02-27T04:28:50.875Z,84.36
2023-02-27T04:29:50.867Z,84.78
2023-02-27T04:30:50.901Z,84.05
2023-02-27T04:31:51.033Z,84.15
2023-02-27T04:32:50.896Z,84.71
2023-02-27T04:33:50.839Z,84.50
2023-02-27T04:34:50.834Z,84.36
2023-02-27T04:35:50.838Z,84.25
2023-02-27T04:36:50.833Z,83.94
2023-02-27T04:37:50.805Z,84.05
2023-02-27T04:38:50.839Z,83.73
2023-02-27T04:39:50.798Z,83.83
2023-02-27T04:40:50.813Z,83.52
2023-02-27T04:41:50.796Z,83.10
2023-02-27T04:42:50.782Z,83.31
2023-02-27T04:43:50.800Z,83.10
2023-02-27T04:44:50.774Z,84.15
2023-02-27T04:45:50.794Z,83.73
2023-02-27T04:46:50.752Z,83.62
2023-02-27T04:47:50.754Z,83.41
2023-02-27T04:48:50.751Z,83.41
2023-02-27T04:49:50.765Z,82.89
2023-02-27T04:50:50.728Z,83.06
2023-02-27T04:51:50.720Z,83.20
2023-02-27T04:52:50.719Z,83.62
2023-02-27T04:53:50.702Z,83.83
2023-02-27T04:54:50.702Z,84.05
2023-02-27T04:55:50.719Z,83.73
2023-02-27T04:56:50.719Z,84.15
2023-02-27T04:57:50.682Z,83.94
2023-02-27T04:58:50.712Z,83.73
2023-02-27T04:59:50.687Z,83.31
2023-02-27T05:00:50.691Z,83.73
2023-02-27T05:01:50.749Z,82.99
2023-02-27T05:02:50.742Z,83.31
2023-02-27T05:03:50.661Z,83.83
2023-02-27T05:04:50.641Z,82.89
2023-02-27T05:05:50.631Z,83.41
2023-02-27T05:06:50.626Z,83.41
2023-02-27T05:07:50.609Z,83.41
2023-02-27T05:08:50.625Z,83.94
2023-02-27T05:09:50.601Z,84.05
2023-02-27T05:10:50.604Z,84.57
2023-02-27T05:11:50.587Z,84.25
2023-02-27T05:12:50.602Z,83.83
2023-02-27T05:13:50.593Z,83.62
2023-02-27T05:14:50.583Z,83.52
2023-02-27T05:15:50.584Z,83.62
2023-02-27T05:16:50.582Z,83.31
2023-02-27T05:17:50.626Z,83.52
2023-02-27T05:18:50.536Z,83.83
2023-02-27T05:19:50.534Z,83.41
2023-02-27T05:20:50.560Z,82.89
2023-02-27T05:21:50.519Z,83.10
2023-02-27T05:22:50.516Z,83.52
2023-02-27T05:23:50.529Z,83.41
2023-02-27T05:24:50.498Z,83.10
2023-02-27T05:25:50.527Z,83.20
2023-02-27T05:26:50.504Z,83.27
2023-02-27T05:27:50.473Z,82.89
2023-02-27T05:28:50.491Z,83.10
2023-02-27T05:29:50.470Z,82.78
2023-02-27T05:30:50.474Z,82.78
2023-02-27T05:31:50.648Z,82.99
2023-02-27T05:32:50.441Z,83.69
2023-02-27T05:33:50.439Z,83.10
2023-02-27T05:34:50.456Z,82.99
2023-02-27T05:35:50.471Z,82.99
2023-02-27T05:36:50.449Z,82.99
2023-02-27T05:37:50.411Z,82.99
2023-02-27T05:38:50.405Z,83.10
2023-02-27T05:39:50.446Z,83.10
2023-02-27T05:40:50.401Z,83.17
2023-02-27T05:41:50.376Z,82.89
2023-02-27T05:42:50.375Z,82.89
2023-02-27T05:43:50.373Z,83.20
2023-02-27T05:44:50.365Z,82.95
2023-02-27T05:45:50.401Z,82.99
2023-02-27T05:46:50.356Z,82.89
2023-02-27T05:47:50.339Z,82.89
2023-02-27T05:48:50.341Z,82.68
2023-02-27T05:49:50.342Z,82.78
2023-02-27T05:50:50.332Z,82.78
2023-02-27T05:51:50.359Z,83.73
2023-02-27T05:52:50.317Z,82.78
2023-02-27T05:53:50.339Z,82.68
2023-02-27T05:54:50.302Z,82.99
2023-02-27T05:55:50.302Z,83.62
2023-02-27T05:56:50.276Z,83.41
2023-02-27T05:57:50.275Z,82.78
2023-02-27T05:58:50.283Z,83.10
2023-02-27T05:59:50.310Z,83.41
2023-02-27T06:00:50.271Z,83.45
2023-02-27T06:01:50.253Z,83.24
2023-02-27T06:02:50.266Z,83.66
2023-02-27T06:03:50.238Z,83.87
2023-02-27T06:04:50.219Z,83.76
2023-02-27T06:05:50.237Z,83.73
2023-02-27T06:06:50.219Z,84.08
2023-02-27T06:07:50.209Z,84.08
2023-02-27T06:08:50.232Z,84.08
2023-02-27T06:09:50.196Z,83.87
2023-02-27T06:10:50.189Z,83.62
2023-02-27T06:11:50.200Z,83.73
2023-02-27T06:12:50.174Z,83.87
2023-02-27T06:13:50.175Z,83.94
2023-02-27T06:14:50.182Z,83.62
2023-02-27T06:15:50.151Z,83.20
2023-02-27T06:16:50.165Z,83.41
2023-02-27T06:17:50.144Z,83.83
2023-02-27T06:18:50.157Z,83.83
2023-02-27T06:19:50.134Z,84.05
2023-02-27T06:20:50.169Z,84.05
2023-02-27T06:21:50.114Z,83.73
2023-02-27T06:22:50.114Z,83.10
2023-02-27T06:23:50.109Z,83.17
2023-02-27T06:24:50.103Z,83.27
2023-02-27T06:25:50.106Z,82.95
2023-02-27T06:26:50.083Z,82.75
2023-02-27T06:27:50.076Z,82.64
2023-02-27T06:28:50.073Z,81.70
2023-02-27T06:29:50.078Z,81.90
2023-02-27T06:30:50.057Z,81.45
2023-02-27T06:31:50.099Z,81.34
2023-02-27T06:32:50.051Z,81.65
2023-02-27T06:33:50.034Z,83.06
2023-02-27T06:34:50.037Z,82.81
2023-02-27T06:35:50.059Z,82.81
2023-02-27T06:36:50.010Z,83.02
2023-02-27T06:37:50.029Z,83.65
2023-02-27T06:38:50.010Z,82.92
2023-02-27T06:39:49.996Z,82.92
2023-02-27T06:40:50.005Z,83.76
2023-02-27T06:41:49.996Z,82.92
2023-02-27T06:42:49.969Z,89.39
2023-02-27T06:43:49.959Z,86.87
2023-02-27T06:44:49.986Z,86.83
2023-02-27T06:45:50.021Z,83.68
2023-02-27T06:46:49.938Z,82.00
2023-02-27T06:47:49.987Z,81.37
2023-02-27T06:48:49.932Z,80.08
2023-02-27T06:49:49.921Z,80.91
2023-02-27T06:50:49.925Z,81.48
2023-02-27T06:51:49.932Z,81.58
2023-02-27T06:52:49.933Z,82.42
2023-02-27T06:53:49.884Z,82.21
2023-02-27T06:54:49.904Z,81.79
2023-02-27T06:55:49.898Z,81.79
2023-02-27T06:56:49.887Z,80.32
2023-02-27T06:57:49.887Z,79.80
2023-02-27T06:58:49.878Z,80.95
2023-02-27T06:59:49.857Z,80.29
2023-02-27T07:00:49.918Z,80.32
2023-02-27T07:01:49.858Z,79.76
2023-02-27T07:02:49.849Z,79.34
2023-02-27T07:03:49.826Z,79.83
2023-02-27T07:04:49.843Z,79.24
2023-02-27T07:05:49.878Z,78.99
2023-02-27T07:07:35.607Z,78.15
2023-02-27T07:07:50.817Z,78.47
2023-02-27T07:09:01.231Z,78.43
2023-02-27T07:09:50.790Z,79.10
2023-02-27T07:10:49.804Z,78.96
2023-02-27T07:11:49.773Z,79.69
2023-02-27T07:12:49.779Z,79.16
2023-02-27T07:13:49.757Z,79.06
2023-02-27T07:14:49.753Z,78.74
2023-02-27T07:15:49.784Z,78.11
2023-02-27T07:16:49.754Z,78.11
2023-02-27T07:17:49.735Z,77.48
2023-02-27T07:18:49.729Z,77.48
2023-02-27T07:19:49.715Z,77.38
2023-02-27T07:20:49.750Z,77.03
2023-02-27T07:21:49.713Z,77.28
2023-02-27T07:22:49.690Z,76.93
2023-02-27T07:23:49.688Z,76.96
2023-02-27T07:24:49.677Z,76.96
2023-02-27T07:25:49.677Z,77.14
2023-02-27T07:26:49.693Z,77.28
2023-02-27T07:27:49.690Z,77.56
2023-02-27T07:28:49.668Z,77.56
2023-02-27T07:29:49.658Z,76.93
2023-02-27T07:30:49.679Z,76.72
2023-02-27T07:31:49.634Z,76.40
2023-02-27T07:32:49.658Z,75.95
2023-02-27T07:33:49.622Z,75.53
2023-02-27T07:34:49.618Z,75.46
2023-02-27T07:35:49.645Z,76.06
2023-02-27T07:36:49.603Z,76.26
2023-02-27T07:37:49.622Z,76.68
2023-02-27T07:38:49.607Z,76.68
2023-02-27T07:39:49.573Z,76.61
2023-02-27T07:40:49.585Z,76.16
2023-02-27T07:41:49.563Z,75.11
2023-02-27T07:42:51.525Z,75.95
2023-02-27T07:43:49.574Z,76.47
2023-02-27T07:44:49.580Z,77.00
2023-02-27T07:45:49.548Z,77.10
2023-02-27T07:46:49.596Z,76.75
2023-02-27T07:47:49.540Z,76.86
2023-02-27T07:48:49.537Z,76.16
2023-02-27T07:49:49.522Z,76.44
2023-02-27T07:50:49.541Z,76.54
2023-02-27T07:51:49.496Z,76.75
2023-02-27T07:52:49.504Z,76.02
2023-02-27T07:53:49.496Z,75.95
2023-02-27T07:54:49.486Z,77.17
2023-02-27T07:55:49.474Z,77.38
2023-02-27T07:56:49.475Z,77.38
2023-02-27T07:57:49.457Z,77.38
2023-02-27T07:58:49.454Z,76.65
2023-02-27T07:59:49.478Z,77.03
2023-02-27T08:00:49.475Z,76.61
2023-02-27T08:01:49.425Z,75.15
2023-02-27T08:02:49.464Z,74.62
2023-02-27T08:03:49.418Z,75.29
2023-02-27T08:04:49.504Z,74.87
2023-02-27T08:05:49.418Z,75.88
2023-02-27T08:06:49.434Z,76.09
2023-02-27T08:07:49.379Z,74.90
2023-02-27T08:08:49.416Z,74.90
2023-02-27T08:09:49.375Z,74.35
2023-02-27T08:10:49.379Z,74.76
2023-02-27T08:11:49.470Z,74.55
2023-02-27T08:12:49.388Z,73.82
2023-02-27T08:14:00.694Z,73.96
2023-02-27T08:14:50.354Z,73.93
2023-02-27T08:15:49.354Z,74.76
2023-02-27T08:16:49.348Z,74.98
2023-02-27T08:17:49.353Z,74.63
2023-02-27T08:18:49.332Z,74.52
2023-02-27T08:19:49.317Z,74.10
2023-02-27T08:20:49.307Z,74.73
2023-02-27T08:21:49.326Z,75.15
2023-02-27T08:22:49.302Z,75.01
2023-02-27T08:23:49.318Z,75.74
2023-02-27T08:24:49.275Z,76.68
2023-02-27T08:25:49.281Z,74.07
2023-02-27T08:26:49.267Z,73.13
2023-02-27T08:27:49.251Z,73.02
2023-02-27T08:28:49.281Z,73.65
2023-02-27T08:29:49.286Z,74.42
2023-02-27T08:30:49.243Z,74.80
2023-02-27T08:31:49.385Z,74.10
2023-02-27T08:32:49.222Z,75.26
2023-02-27T08:33:55.326Z,76.40
2023-02-27T08:34:50.229Z,75.74
2023-02-27T08:35:49.272Z,74.73
2023-02-27T08:36:49.191Z,75.04
2023-02-27T08:37:49.209Z,76.61
2023-02-27T08:38:49.175Z,75.12
2023-02-27T08:39:49.163Z,74.80
2023-02-27T08:40:49.166Z,74.59
2023-02-27T08:41:49.169Z,74.80
2023-02-27T08:42:49.163Z,74.59
2023-02-27T08:43:49.138Z,74.91
2023-02-27T08:44:49.133Z,75.22
2023-02-27T08:45:49.136Z,74.59
2023-02-27T08:46:49.144Z,73.62
2023-02-27T08:47:49.118Z,74.04
2023-02-27T08:48:49.124Z,73.30
2023-02-27T08:49:49.098Z,72.75
2023-02-27T08:50:49.091Z,72.75
2023-02-27T08:51:49.110Z,71.91
2023-02-27T08:52:49.085Z,71.78
2023-02-27T08:53:49.084Z,73.45
2023-02-27T08:54:49.067Z,71.53
2023-02-27T08:55:49.058Z,71.22
2023-02-27T08:56:49.081Z,70.60
2023-02-27T08:57:49.056Z,71.22
2023-02-27T08:58:49.041Z,69.73
2023-02-27T08:59:49.077Z,68.73
2023-02-27T09:00:49.057Z,67.17
2023-02-27T09:01:49.025Z,67.03
2023-02-27T09:02:49.093Z,67.11
2023-02-27T09:03:49.007Z,65.55
2023-02-27T09:04:49.029Z,65.41
2023-02-27T09:05:49.003Z,65.42
2023-02-27T09:06:48.981Z,63.81
2023-02-27T09:07:48.991Z,62.98
2023-02-27T09:08:48.988Z,60.88
2023-02-27T09:09:50.096Z,61.08
2023-02-27T09:10:48.989Z,60.15
2023-02-27T09:11:48.953Z,60.02
2023-02-27T09:12:48.942Z,60.74
2023-02-27T09:13:48.935Z,61.29
2023-02-27T09:14:48.928Z,60.46
2023-02-27T09:15:48.953Z,59.77
2023-02-27T09:16:48.945Z,58.85
2023-02-27T09:17:48.920Z,56.26
2023-02-27T09:18:48.901Z,54.64
2023-02-27T09:19:48.913Z,50.38
2023-02-27T09:20:48.898Z,52.39
2023-02-27T09:21:48.917Z,49.88
2023-02-27T09:22:48.883Z,47.97
2023-02-27T09:23:48.890Z,46.38
2023-02-27T09:24:48.879Z,46.36
2023-02-27T09:25:48.888Z,44.59
2023-02-27T09:26:49.152Z,43.85
2023-02-27T09:27:48.863Z,40.42
2023-02-27T09:28:48.857Z,40.45
2023-02-27T09:29:48.835Z,40.36
2023-02-27T09:30:48.851Z,42.91
2023-02-27T09:31:48.935Z,45.91
2023-02-27T09:32:48.908Z,44.00
2023-02-27T09:33:48.843Z,42.26
2023-02-27T09:34:48.814Z,42.44
2023-02-27T09:35:48.824Z,41.36
2023-02-27T09:36:48.796Z,42.20
2023-02-27T09:37:48.799Z,39.67
2023-02-27T09:38:48.788Z,40.34
2023-02-27T09:39:48.802Z,39.92
2023-02-27T09:40:48.782Z,41.17
2023-02-27T09:41:48.768Z,42.58
2023-02-27T09:42:48.812Z,43.77
2023-02-27T09:43:48.774Z,47.15
2023-02-27T09:44:48.771Z,47.98
2023-02-27T09:45:48.786Z,50.32
2023-02-27T09:46:48.757Z,53.05
2023-02-27T09:47:48.730Z,53.36
2023-02-27T09:48:48.734Z,51.78
2023-02-27T09:49:48.721Z,50.72
2023-02-27T09:50:48.712Z,50.58
2023-02-27T09:51:48.731Z,51.61
2023-02-27T09:52:48.728Z,53.05
2023-02-27T09:53:48.696Z,53.52
2023-02-27T09:54:48.688Z,53.44
2023-02-27T09:55:48.698Z,54.55
2023-02-27T09:56:48.686Z,55.87
2023-02-27T09:57:48.678Z,58.44
2023-02-27T09:58:48.677Z,57.95
2023-02-27T09:59:48.665Z,57.98
2023-02-27T10:00:48.694Z,58.52
2023-02-27T10:01:48.654Z,59.69
2023-02-27T10:02:48.652Z,60.03
2023-02-27T10:03:48.633Z,58.78
2023-02-27T10:04:48.630Z,59.30
2023-02-27T10:05:48.630Z,60.06
2023-02-27T10:06:48.640Z,59.95
2023-02-27T10:07:48.626Z,59.95
2023-02-27T10:08:48.617Z,60.47
2023-02-27T10:09:48.606Z,61.62
2023-02-27T10:10:48.624Z,57.17
2023-02-27T10:11:48.608Z,54.94
2023-02-27T10:12:48.589Z,56.78
2023-02-27T10:13:48.606Z,56.60
2023-02-27T10:14:48.587Z,50.76
2023-02-27T10:15:48.587Z,48.26
2023-02-27T10:16:48.631Z,46.03
2023-02-27T10:17:48.557Z,44.98
2023-02-27T10:18:48.580Z,49.76
2023-02-27T10:19:48.568Z,48.12
2023-02-27T10:20:48.589Z,45.91
2023-02-27T10:21:48.554Z,45.93
2023-02-27T10:22:48.547Z,43.55
2023-02-27T10:23:48.556Z,43.75
2023-02-27T10:24:48.525Z,42.83
2023-02-27T10:25:48.525Z,44.06
2023-02-27T10:26:48.552Z,43.52
2023-02-27T10:27:48.510Z,42.72
2023-02-27T10:28:48.516Z,44.06
2023-02-27T10:29:48.498Z,43.75
2023-02-27T10:30:48.590Z,42.62
2023-02-27T10:31:48.517Z,41.90
2023-02-27T10:32:48.492Z,42.95
2023-02-27T10:33:48.488Z,45.87
2023-02-27T10:34:48.506Z,44.56
2023-02-27T10:35:48.485Z,46.61
2023-02-27T10:36:48.463Z,44.41
2023-02-27T10:37:48.470Z,45.23
2023-02-27T10:38:48.461Z,45.87
2023-02-27T10:39:48.445Z,46.91
2023-02-27T10:40:48.472Z,48.16
2023-02-27T10:41:48.441Z,48.06
2023-02-27T10:42:48.458Z,48.83
2023-02-27T10:43:48.424Z,47.74
2023-02-27T10:44:48.421Z,49.82
2023-02-27T10:45:48.423Z,51.19
2023-02-27T10:46:51.335Z,51.21
2023-02-27T10:47:48.396Z,51.42
2023-02-27T10:48:48.407Z,52.25
2023-02-27T10:49:48.400Z,52.64
2023-02-27T10:50:48.388Z,53.03
2023-02-27T10:51:48.380Z,51.68
2023-02-27T10:52:48.389Z,51.48
2023-02-27T10:53:48.356Z,50.84
2023-02-27T10:54:48.380Z,51.04
2023-02-27T10:55:48.346Z,52.39
2023-02-27T10:56:48.349Z,50.73
2023-02-27T10:57:48.345Z,50.76
2023-02-27T10:58:48.363Z,51.25
2023-02-27T10:59:48.333Z,53.00
2023-02-27T11:00:48.362Z,51.76
2023-02-27T11:01:48.395Z,50.11
2023-02-27T11:02:48.355Z,52.62
2023-02-27T11:03:48.341Z,50.34
2023-02-27T11:04:48.349Z,50.49
2023-02-27T11:05:48.303Z,53.23
2023-02-27T11:06:48.319Z,52.00
2023-02-27T11:07:48.308Z,52.20
2023-02-27T11:08:50.277Z,51.56
2023-02-27T11:09:48.275Z,51.79
2023-02-27T11:10:48.287Z,52.41
2023-02-27T11:11:48.265Z,50.03
2023-02-27T11:12:48.264Z,49.85
2023-02-27T11:13:48.260Z,51.68
2023-02-27T11:14:48.254Z,49.62
2023-02-27T11:15:48.276Z,49.70
2023-02-27T11:16:48.239Z,50.45
2023-02-27T11:17:48.242Z,50.68
2023-02-27T11:18:48.251Z,50.68
2023-02-27T11:19:48.227Z,52.20
2023-02-27T11:20:48.226Z,50.45
2023-02-27T11:21:48.212Z,50.63
2023-02-27T11:22:48.223Z,50.29
2023-02-27T11:23:48.209Z,50.27
2023-02-27T11:24:48.252Z,50.38
2023-02-27T11:25:48.200Z,49.55
2023-02-27T11:26:48.189Z,48.02
2023-02-27T11:27:48.191Z,49.70
2023-02-27T11:28:48.204Z,51.56
2023-02-27T11:29:48.189Z,49.49
2023-02-27T11:30:48.189Z,48.95
2023-02-27T11:31:48.254Z,50.42
2023-02-27T11:32:48.172Z,50.29
2023-02-27T11:33:48.189Z,52.80
2023-02-27T11:34:48.143Z,51.19
2023-02-27T11:35:48.182Z,51.94
2023-02-27T11:36:48.149Z,51.76
2023-02-27T11:37:48.125Z,52.40
2023-02-27T11:38:48.132Z,52.84
2023-02-27T11:39:48.143Z,53.33
2023-02-27T11:40:48.123Z,52.56
2023-02-27T11:41:48.117Z,54.11
2023-02-27T11:42:48.104Z,53.23
2023-02-27T11:43:48.102Z,53.85
2023-02-27T11:44:50.275Z,55.12
2023-02-27T11:46:24.935Z,55.22
2023-02-27T11:46:48.863Z,56.16
2023-02-27T11:47:48.092Z,55.12
2023-02-27T11:48:48.109Z,55.82
2023-02-27T11:49:48.069Z,55.85
2023-02-27T11:50:48.075Z,56.37
2023-02-27T11:51:48.062Z,56.13
2023-02-27T11:52:48.053Z,55.20
2023-02-27T11:53:48.060Z,54.79
2023-02-27T11:54:48.055Z,55.12
2023-02-27T11:55:48.030Z,55.82
2023-02-27T11:56:48.031Z,54.58
2023-02-27T11:57:48.015Z,56.65
2023-02-27T11:58:48.017Z,58.00
2023-02-27T11:59:48.032Z,56.03
2023-02-27T12:00:48.006Z,56.13
2023-02-27T12:01:47.998Z,56.05
2023-02-27T12:02:48.059Z,56.68
2023-02-27T12:03:47.997Z,56.68
2023-02-27T12:04:48.025Z,56.88
2023-02-27T12:05:48.007Z,55.72
2023-02-27T12:06:47.999Z,57.14
2023-02-27T12:07:47.955Z,58.07
2023-02-27T12:08:47.972Z,56.65
2023-02-27T12:09:47.984Z,56.62
2023-02-27T12:10:47.956Z,55.93
2023-02-27T12:11:47.952Z,56.45
2023-02-27T12:12:47.963Z,55.51
2023-02-27T12:13:47.951Z,56.55
2023-02-27T12:14:48.014Z,56.76
2023-02-27T12:15:48.007Z,56.86
2023-02-27T12:16:48.025Z,56.88
2023-02-27T12:17:47.920Z,57.40
2023-02-27T12:18:47.930Z,56.24
2023-02-27T12:19:47.909Z,56.45
2023-02-27T12:20:47.948Z,54.99
2023-02-27T12:21:49.565Z,58.21
2023-02-27T12:22:47.900Z,58.31
2023-02-27T12:23:47.886Z,58.73
2023-02-27T12:24:47.871Z,56.41
2023-02-27T12:25:47.887Z,55.90
2023-02-27T12:26:47.854Z,58.26
2023-02-27T12:27:47.846Z,56.88
2023-02-27T12:28:47.846Z,58.10
2023-02-27T12:29:47.839Z,56.21
2023-02-27T12:30:47.884Z,56.00
2023-02-27T12:31:47.939Z,54.55
2023-02-27T12:32:49.936Z,53.52
2023-02-27T12:33:47.817Z,52.56
2023-02-27T12:34:47.820Z,55.66
2023-02-27T12:35:47.821Z,55.12
2023-02-27T12:36:47.840Z,52.64
2023-02-27T12:37:47.794Z,52.87
2023-02-27T12:38:47.821Z,52.98
2023-02-27T12:39:47.780Z,53.44
2023-02-27T12:40:47.779Z,54.89
2023-02-27T12:41:47.780Z,54.50
2023-02-27T12:42:47.780Z,56.18
2023-02-27T12:43:47.766Z,53.59
2023-02-27T12:44:47.766Z,55.46
2023-02-27T12:45:47.816Z,55.87
2023-02-27T12:46:47.763Z,55.12
2023-02-27T12:47:47.737Z,56.65
2023-02-27T12:48:47.722Z,56.00
2023-02-27T12:49:47.730Z,56.00
2023-02-27T12:50:47.712Z,54.97
2023-02-27T12:51:47.717Z,54.79
2023-02-27T12:52:47.703Z,54.99